Terminal Aerodrome Forecast
Issued by NWS

Home | Current Version | Previous Version | Text Only | Print | Product List | Glossary Off
Versions: 1 2 3 4 5 6 7 8 9 10 11 12 13

000
FTUS43 KTOP 301720
TAFFOE
TAF
KFOE 301720Z 3018/0118 23009KT P6SM SCT150
     FM302300 15009KT P6SM BKN100
     FM011000 11007KT P6SM BKN080=

USA.gov is the U.S. government's official web portal to all federal, state and local government web resources and services.